sensor_id;sensor_type;location;lat;lon;timestamp;P1;durP1;ratioP1;P2;durP2;ratioP2
74753;SDS011;63271;53.340;-6.260;2023-12-04T07:01:31;1.02;;;0.43;;
74753;SDS011;63271;53.340;-6.260;2023-12-04T07:03:57;1.63;;;0.30;;
74753;SDS011;63271;53.340;-6.260;2023-12-04T07:06:22;0.30;;;0.30;;
74753;SDS011;63271;53.340;-6.260;2023-12-04T07:08:50;0.43;;;0.40;;
74753;SDS011;63271;53.340;-6.260;2023-12-04T07:11:18;0.70;;;0.38;;
74753;SDS011;63271;53.340;-6.260;2023-12-04T07:13:45;0.90;;;0.20;;
74753;SDS011;63271;53.340;-6.260;2023-12-04T07:16:11;0.65;;;0.50;;
74753;SDS011;63271;53.340;-6.260;2023-12-04T07:18:36;0.68;;;0.22;;
74753;SDS011;63271;53.340;-6.260;2023-12-04T07:21:02;0.63;;;0.43;;
74753;SDS011;63271;53.340;-6.260;2023-12-04T07:23:31;2.30;;;0.80;;
74753;SDS011;63271;53.340;-6.260;2023-12-04T07:25:59;0.65;;;0.65;;
74753;SDS011;63271;53.340;-6.260;2023-12-04T07:28:27;1.48;;;0.43;;
74753;SDS011;63271;53.340;-6.260;2023-12-04T07:30:54;0.43;;;0.43;;
74753;SDS011;63271;53.340;-6.260;2023-12-04T07:33:20;1.17;;;0.68;;
74753;SDS011;63271;53.340;-6.260;2023-12-04T07:35:45;0.52;;;0.50;;
74753;SDS011;63271;53.340;-6.260;2023-12-04T07:38:11;1.10;;;0.45;;
74753;SDS011;63271;53.340;-6.260;2023-12-04T07:40:39;1.92;;;0.68;;
74753;SDS011;63271;53.340;-6.260;2023-12-04T07:43:05;0.50;;;0.50;;
74753;SDS011;63271;53.340;-6.260;2023-12-04T07:45:30;0.60;;;0.60;;
74753;SDS011;63271;53.340;-6.260;2023-12-04T07:47:56;0.20;;;0.20;;
74753;SDS011;63271;53.340;-6.260;2023-12-04T07:50:24;0.68;;;0.50;;
74753;SDS011;63271;53.340;-6.260;2023-12-04T07:52:54;1.17;;;0.70;;
74753;SDS011;63271;53.340;-6.260;2023-12-04T07:55:19;1.10;;;0.88;;
74753;SDS011;63271;53.340;-6.260;2023-12-04T07:57:47;0.40;;;0.40;;
74753;SDS011;63271;53.340;-6.260;2023-12-04T08:00:18;0.55;;;0.47;;
74753;SDS011;63271;53.340;-6.260;2023-12-04T08:02:44;1.95;;;0.73;;
74753;SDS011;63271;53.340;-6.260;2023-12-04T08:05:11;1.85;;;0.35;;
74753;SDS011;63271;53.340;-6.260;2023-12-04T08:07:37;3.00;;;0.60;;
74753;SDS011;63271;53.340;-6.260;2023-12-04T08:10:02;1.17;;;0.50;;
74753;SDS011;63271;53.340;-6.260;2023-12-04T08:12:31;0.40;;;0.40;;
74753;SDS011;63271;53.340;-6.260;2023-12-04T08:14:59;0.73;;;0.65;;
74753;SDS011;63271;53.340;-6.260;2023-12-04T08:17:25;0.98;;;0.70;;
74753;SDS011;63271;53.340;-6.260;2023-12-04T08:19:50;0.50;;;0.50;;
74753;SDS011;63271;53.340;-6.260;2023-12-04T08:22:16;1.55;;;0.60;;
74753;SDS011;63271;53.340;-6.260;2023-12-04T08:24:41;0.82;;;0.38;;
74753;SDS011;63271;53.340;-6.260;2023-12-04T08:27:09;2.67;;;0.57;;
74753;SDS011;63271;53.340;-6.260;2023-12-04T08:29:34;1.00;;;0.32;;
74753;SDS011;63271;53.340;-6.260;2023-12-04T08:32:03;1.23;;;0.70;;
74753;SDS011;63271;53.340;-6.260;2023-12-04T08:34:31;0.95;;;0.55;;
74753;SDS011;63271;53.340;-6.260;2023-12-04T08:36:59;1.30;;;0.50;;
74753;SDS011;63271;53.340;-6.260;2023-12-04T08:39:25;0.50;;;0.40;;
74753;SDS011;63271;53.340;-6.260;2023-12-04T08:41:52;0.70;;;0.50;;
74753;SDS011;63271;53.340;-6.260;2023-12-04T08:44:18;0.90;;;0.50;;
74753;SDS011;63271;53.340;-6.260;2023-12-04T08:46:43;2.22;;;0.68;;
74753;SDS011;63271;53.340;-6.260;2023-12-04T08:49:09;1.35;;;0.90;;
74753;SDS011;63271;53.340;-6.260;2023-12-04T08:51:37;0.70;;;0.68;;
74753;SDS011;63271;53.340;-6.260;2023-12-04T08:54:06;0.43;;;0.43;;
74753;SDS011;63271;53.340;-6.260;2023-12-04T08:56:34;0.52;;;0.40;;
74753;SDS011;63271;53.340;-6.260;2023-12-04T08:59:02;0.50;;;0.50;;
74753;SDS011;63271;53.340;-6.260;2023-12-04T09:01:27;2.17;;;0.75;;
74753;SDS011;63271;53.340;-6.260;2023-12-04T09:03:53;0.85;;;0.55;;
74753;SDS011;63271;53.340;-6.260;2023-12-04T09:06:19;2.90;;;1.50;;
74753;SDS011;63271;53.340;-6.260;2023-12-04T09:08:44;3.80;;;1.27;;
74753;SDS011;63271;53.340;-6.260;2023-12-04T09:11:12;2.13;;;1.00;;
74753;SDS011;63271;53.340;-6.260;2023-12-04T09:13:38;3.58;;;1.20;;
74753;SDS011;63271;53.340;-6.260;2023-12-04T09:16:03;2.25;;;1.10;;
74753;SDS011;63271;53.340;-6.260;2023-12-04T09:18:29;1.30;;;0.77;;
74753;SDS011;63271;53.340;-6.260;2023-12-04T09:20:57;2.97;;;0.93;;
74753;SDS011;63271;53.340;-6.260;2023-12-04T09:23:23;6.07;;;0.95;;
74753;SDS011;63271;53.340;-6.260;2023-12-04T09:25:48;1.65;;;0.90;;
74753;SDS011;63271;53.340;-6.260;2023-12-04T09:28:18;4.45;;;1.02;;
74753;SDS011;63271;53.340;-6.260;2023-12-04T09:30:44;2.45;;;0.80;;
74753;SDS011;63271;53.340;-6.260;2023-12-04T09:33:09;2.13;;;0.98;;
74753;SDS011;63271;53.340;-6.260;2023-12-04T09:35:37;2.88;;;0.75;;
74753;SDS011;63271;53.340;-6.260;2023-12-04T09:38:02;2.40;;;0.80;;
74753;SDS011;63271;53.340;-6.260;2023-12-04T09:40:30;2.53;;;0.60;;
74753;SDS011;63271;53.340;-6.260;2023-12-04T09:42:58;4.05;;;0.80;;
74753;SDS011;63271;53.340;-6.260;2023-12-04T09:45:24;5.05;;;1.10;;
74753;SDS011;63271;53.340;-6.260;2023-12-04T09:47:52;1.48;;;0.75;;
74753;SDS011;63271;53.340;-6.260;2023-12-04T09:50:18;4.10;;;1.63;;
74753;SDS011;63271;53.340;-6.260;2023-12-04T09:52:48;2.20;;;0.63;;
74753;SDS011;63271;53.340;-6.260;2023-12-04T09:55:15;1.98;;;0.70;;
74753;SDS011;63271;53.340;-6.260;2023-12-04T09:57:45;1.15;;;0.70;;
74753;SDS011;63271;53.340;-6.260;2023-12-04T10:00:14;2.05;;;0.88;;
74753;SDS011;63271;53.340;-6.260;2023-12-04T10:02:40;2.00;;;0.80;;
74753;SDS011;63271;53.340;-6.260;2023-12-04T10:05:09;3.38;;;0.90;;
74753;SDS011;63271;53.340;-6.260;2023-12-04T10:07:37;4.85;;;1.10;;
74753;SDS011;63271;53.340;-6.260;2023-12-04T10:10:04;0.80;;;0.68;;
74753;SDS011;63271;53.340;-6.260;2023-12-04T10:12:35;2.20;;;0.98;;
74753;SDS011;63271;53.340;-6.260;2023-12-04T10:17:32;4.10;;;1.30;;
74753;SDS011;63271;53.340;-6.260;2023-12-04T10:22:36;2.90;;;0.93;;
74753;SDS011;63271;53.340;-6.260;2023-12-04T10:25:15;3.58;;;1.02;;
74753;SDS011;63271;53.340;-6.260;2023-12-04T10:27:41;2.75;;;1.10;;
74753;SDS011;63271;53.340;-6.260;2023-12-04T10:30:10;1.23;;;0.63;;
74753;SDS011;63271;53.340;-6.260;2023-12-04T10:32:48;1.17;;;0.82;;
74753;SDS011;63271;53.340;-6.260;2023-12-04T10:35:13;1.45;;;1.08;;
74753;SDS011;63271;53.340;-6.260;2023-12-04T10:37:39;1.33;;;0.95;;
74753;SDS011;63271;53.340;-6.260;2023-12-04T10:40:05;3.50;;;1.00;;
74753;SDS011;63271;53.340;-6.260;2023-12-04T10:42:34;2.20;;;1.02;;
74753;SDS011;63271;53.340;-6.260;2023-12-04T10:45:00;3.72;;;1.10;;
74753;SDS011;63271;53.340;-6.260;2023-12-04T10:47:30;2.50;;;0.88;;
74753;SDS011;63271;53.340;-6.260;2023-12-04T10:49:56;0.45;;;0.43;;
74753;SDS011;63271;53.340;-6.260;2023-12-04T10:52:24;1.73;;;0.90;;
74753;SDS011;63271;53.340;-6.260;2023-12-04T10:54:50;1.58;;;0.70;;
74753;SDS011;63271;53.340;-6.260;2023-12-04T10:57:25;3.85;;;1.10;;
74753;SDS011;63271;53.340;-6.260;2023-12-04T10:59:55;2.55;;;1.13;;
74753;SDS011;63271;53.340;-6.260;2023-12-04T11:02:25;1.88;;;1.05;;
74753;SDS011;63271;53.340;-6.260;2023-12-04T11:04:53;3.30;;;0.98;;
74753;SDS011;63271;53.340;-6.260;2023-12-04T11:07:23;3.17;;;1.02;;
74753;SDS011;63271;53.340;-6.260;2023-12-04T11:09:49;4.32;;;1.10;;
74753;SDS011;63271;53.340;-6.260;2023-12-04T11:12:18;1.02;;;0.85;;
74753;SDS011;63271;53.340;-6.260;2023-12-04T11:14:44;5.57;;;0.85;;
74753;SDS011;63271;53.340;-6.260;2023-12-04T11:17:14;2.60;;;0.98;;
74753;SDS011;63271;53.340;-6.260;2023-12-04T11:22:26;1.17;;;1.00;;
74753;SDS011;63271;53.340;-6.260;2023-12-04T11:24:55;1.80;;;0.90;;
74753;SDS011;63271;53.340;-6.260;2023-12-04T11:27:21;1.80;;;0.90;;
74753;SDS011;63271;53.340;-6.260;2023-12-04T11:29:46;1.67;;;1.20;;
74753;SDS011;63271;53.340;-6.260;2023-12-04T11:32:16;1.50;;;1.08;;
74753;SDS011;63271;53.340;-6.260;2023-12-04T11:34:49;0.98;;;0.80;;
74753;SDS011;63271;53.340;-6.260;2023-12-04T11:37:22;1.20;;;1.00;;
74753;SDS011;63271;53.340;-6.260;2023-12-04T11:39:53;1.08;;;0.98;;
74753;SDS011;63271;53.340;-6.260;2023-12-04T11:42:22;2.88;;;1.00;;
74753;SDS011;63271;53.340;-6.260;2023-12-04T11:44:49;1.73;;;1.00;;
74753;SDS011;63271;53.340;-6.260;2023-12-04T11:47:17;2.45;;;1.00;;
74753;SDS011;63271;53.340;-6.260;2023-12-04T11:49:47;2.40;;;0.82;;
74753;SDS011;63271;53.340;-6.260;2023-12-04T11:52:12;3.08;;;1.10;;
74753;SDS011;63271;53.340;-6.260;2023-12-04T11:54:57;2.33;;;1.00;;
74753;SDS011;63271;53.340;-6.260;2023-12-04T11:57:24;2.33;;;0.90;;
74753;SDS011;63271;53.340;-6.260;2023-12-04T11:59:51;1.48;;;1.00;;
74753;SDS011;63271;53.340;-6.260;2023-12-04T12:02:44;1.95;;;1.17;;
74753;SDS011;63271;53.340;-6.260;2023-12-04T12:05:12;3.05;;;1.20;;
74753;SDS011;63271;53.340;-6.260;2023-12-04T12:07:43;2.35;;;1.08;;
74753;SDS011;63271;53.340;-6.260;2023-12-04T12:10:11;4.75;;;1.10;;
74753;SDS011;63271;53.340;-6.260;2023-12-04T12:12:39;2.45;;;1.10;;
74753;SDS011;63271;53.340;-6.260;2023-12-04T12:15:07;4.85;;;1.17;;
74753;SDS011;63271;53.340;-6.260;2023-12-04T12:17:42;1.88;;;0.90;;
74753;SDS011;63271;53.340;-6.260;2023-12-04T12:20:07;1.83;;;0.98;;
74753;SDS011;63271;53.340;-6.260;2023-12-04T12:22:34;3.75;;;1.35;;
74753;SDS011;63271;53.340;-6.260;2023-12-04T12:25:00;4.32;;;1.30;;
74753;SDS011;63271;53.340;-6.260;2023-12-04T12:27:27;4.65;;;1.20;;
74753;SDS011;63271;53.340;-6.260;2023-12-04T12:29:52;4.38;;;1.35;;
74753;SDS011;63271;53.340;-6.260;2023-12-04T12:32:20;2.85;;;1.40;;
74753;SDS011;63271;53.340;-6.260;2023-12-04T12:34:46;3.05;;;1.30;;
74753;SDS011;63271;53.340;-6.260;2023-12-04T12:37:11;15.27;;;1.45;;
74753;SDS011;63271;53.340;-6.260;2023-12-04T12:39:36;3.13;;;1.33;;
74753;SDS011;63271;53.340;-6.260;2023-12-04T12:42:02;5.75;;;1.40;;
74753;SDS011;63271;53.340;-6.260;2023-12-04T12:44:36;3.83;;;1.45;;
74753;SDS011;63271;53.340;-6.260;2023-12-04T12:47:04;3.55;;;1.40;;
74753;SDS011;63271;53.340;-6.260;2023-12-04T12:49:32;3.75;;;1.40;;
74753;SDS011;63271;53.340;-6.260;2023-12-04T12:52:06;8.57;;;1.48;;
74753;SDS011;63271;53.340;-6.260;2023-12-04T12:54:33;9.90;;;1.67;;
74753;SDS011;63271;53.340;-6.260;2023-12-04T12:57:01;2.95;;;1.50;;
74753;SDS011;63271;53.340;-6.260;2023-12-04T12:59:32;6.60;;;1.60;;
74753;SDS011;63271;53.340;-6.260;2023-12-04T13:02:01;7.72;;;1.90;;
74753;SDS011;63271;53.340;-6.260;2023-12-04T13:04:38;6.10;;;1.65;;
74753;SDS011;63271;53.340;-6.260;2023-12-04T13:09:34;4.38;;;1.80;;
74753;SDS011;63271;53.340;-6.260;2023-12-04T13:12:03;4.40;;;1.75;;
74753;SDS011;63271;53.340;-6.260;2023-12-04T13:14:30;4.72;;;1.63;;
74753;SDS011;63271;53.340;-6.260;2023-12-04T13:16:56;9.25;;;2.22;;
74753;SDS011;63271;53.340;-6.260;2023-12-04T13:19:22;13.57;;;3.30;;
74753;SDS011;63271;53.340;-6.260;2023-12-04T13:21:50;5.75;;;1.70;;
74753;SDS011;63271;53.340;-6.260;2023-12-04T13:24:18;9.10;;;2.63;;
74753;SDS011;63271;53.340;-6.260;2023-12-04T13:26:44;5.57;;;2.30;;
74753;SDS011;63271;53.340;-6.260;2023-12-04T13:29:12;8.63;;;2.10;;
74753;SDS011;63271;53.340;-6.260;2023-12-04T13:31:43;5.22;;;2.03;;
74753;SDS011;63271;53.340;-6.260;2023-12-04T13:34:08;7.70;;;2.13;;
74753;SDS011;63271;53.340;-6.260;2023-12-04T13:36:36;3.72;;;1.60;;
74753;SDS011;63271;53.340;-6.260;2023-12-04T13:39:02;6.13;;;2.20;;
74753;SDS011;63271;53.340;-6.260;2023-12-04T13:41:29;10.05;;;2.05;;
74753;SDS011;63271;53.340;-6.260;2023-12-04T13:44:34;4.60;;;1.60;;
74753;SDS011;63271;53.340;-6.260;2023-12-04T13:47:00;4.10;;;1.95;;
74753;SDS011;63271;53.340;-6.260;2023-12-04T13:49:25;9.07;;;2.25;;
74753;SDS011;63271;53.340;-6.260;2023-12-04T13:51:51;5.88;;;2.30;;
74753;SDS011;63271;53.340;-6.260;2023-12-04T13:54:23;4.30;;;1.67;;
74753;SDS011;63271;53.340;-6.260;2023-12-04T13:57:04;5.68;;;2.00;;
74753;SDS011;63271;53.340;-6.260;2023-12-04T13:59:36;6.05;;;2.00;;
74753;SDS011;63271;53.340;-6.260;2023-12-04T14:02:03;8.27;;;2.17;;
74753;SDS011;63271;53.340;-6.260;2023-12-04T14:04:32;4.88;;;1.70;;
74753;SDS011;63271;53.340;-6.260;2023-12-04T14:07:00;9.13;;;2.13;;
74753;SDS011;63271;53.340;-6.260;2023-12-04T14:09:28;8.43;;;1.95;;
74753;SDS011;63271;53.340;-6.260;2023-12-04T14:11:54;4.85;;;2.05;;
74753;SDS011;63271;53.340;-6.260;2023-12-04T14:14:19;5.57;;;1.90;;
74753;SDS011;63271;53.340;-6.260;2023-12-04T14:16:44;5.68;;;2.22;;
74753;SDS011;63271;53.340;-6.260;2023-12-04T14:19:12;7.30;;;1.70;;
74753;SDS011;63271;53.340;-6.260;2023-12-04T14:21:42;3.67;;;1.85;;
74753;SDS011;63271;53.340;-6.260;2023-12-04T14:24:09;5.30;;;1.73;;
74753;SDS011;63271;53.340;-6.260;2023-12-04T14:26:35;5.70;;;2.30;;
74753;SDS011;63271;53.340;-6.260;2023-12-04T14:29:01;9.27;;;2.85;;
74753;SDS011;63271;53.340;-6.260;2023-12-04T14:31:28;9.10;;;2.22;;
74753;SDS011;63271;53.340;-6.260;2023-12-04T14:33:55;5.28;;;1.90;;
74753;SDS011;63271;53.340;-6.260;2023-12-04T14:36:20;6.63;;;2.15;;
74753;SDS011;63271;53.340;-6.260;2023-12-04T14:38:52;4.93;;;1.98;;
74753;SDS011;63271;53.340;-6.260;2023-12-04T14:41:21;4.20;;;1.80;;
74753;SDS011;63271;53.340;-6.260;2023-12-04T14:43:46;8.05;;;2.25;;
74753;SDS011;63271;53.340;-6.260;2023-12-04T14:46:11;5.35;;;2.33;;
74753;SDS011;63271;53.340;-6.260;2023-12-04T14:48:39;6.65;;;2.13;;
74753;SDS011;63271;53.340;-6.260;2023-12-04T14:51:06;4.88;;;1.80;;
74753;SDS011;63271;53.340;-6.260;2023-12-04T14:53:34;5.25;;;1.92;;
74753;SDS011;63271;53.340;-6.260;2023-12-04T14:56:15;6.15;;;2.30;;
74753;SDS011;63271;53.340;-6.260;2023-12-04T14:59:00;11.77;;;2.33;;
74753;SDS011;63271;53.340;-6.260;2023-12-04T15:01:46;12.50;;;2.50;;
74753;SDS011;63271;53.340;-6.260;2023-12-04T15:04:49;4.82;;;2.25;;
74753;SDS011;63271;53.340;-6.260;2023-12-04T15:07:37;10.88;;;2.10;;
74753;SDS011;63271;53.340;-6.260;2023-12-04T15:10:21;4.75;;;1.60;;
74753;SDS011;63271;53.340;-6.260;2023-12-04T15:12:53;8.02;;;2.22;;
74753;SDS011;63271;53.340;-6.260;2023-12-04T15:15:18;4.25;;;2.30;;
74753;SDS011;63271;53.340;-6.260;2023-12-04T15:17:52;7.10;;;1.80;;
74753;SDS011;63271;53.340;-6.260;2023-12-04T15:20:37;8.60;;;2.17;;
74753;SDS011;63271;53.340;-6.260;2023-12-04T15:23:08;4.65;;;2.03;;
74753;SDS011;63271;53.340;-6.260;2023-12-04T15:25:34;3.28;;;1.60;;
74753;SDS011;63271;53.340;-6.260;2023-12-04T15:27:59;4.82;;;2.10;;
74753;SDS011;63271;53.340;-6.260;2023-12-04T15:30:28;7.97;;;2.30;;
74753;SDS011;63271;53.340;-6.260;2023-12-04T15:32:54;6.05;;;2.10;;
74753;SDS011;63271;53.340;-6.260;2023-12-04T15:35:19;4.10;;;1.90;;
74753;SDS011;63271;53.340;-6.260;2023-12-04T15:37:47;6.97;;;2.33;;
74753;SDS011;63271;53.340;-6.260;2023-12-04T15:40:12;5.53;;;2.10;;
74753;SDS011;63271;53.340;-6.260;2023-12-04T15:42:40;9.43;;;2.40;;
74753;SDS011;63271;53.340;-6.260;2023-12-04T15:45:08;6.30;;;1.73;;
74753;SDS011;63271;53.340;-6.260;2023-12-04T15:47:34;8.35;;;2.40;;
74753;SDS011;63271;53.340;-6.260;2023-12-04T15:50:04;3.90;;;1.95;;
74753;SDS011;63271;53.340;-6.260;2023-12-04T15:52:32;6.05;;;2.05;;
74753;SDS011;63271;53.340;-6.260;2023-12-04T15:54:58;6.38;;;2.30;;
74753;SDS011;63271;53.340;-6.260;2023-12-04T15:57:23;4.45;;;1.95;;
74753;SDS011;63271;53.340;-6.260;2023-12-04T15:59:54;5.40;;;2.05;;
74753;SDS011;63271;53.340;-6.260;2023-12-04T16:02:19;4.45;;;1.70;;
74753;SDS011;63271;53.340;-6.260;2023-12-04T16:04:47;5.85;;;1.90;;
74753;SDS011;63271;53.340;-6.260;2023-12-04T16:07:12;4.43;;;2.33;;
74753;SDS011;63271;53.340;-6.260;2023-12-04T16:09:40;5.68;;;2.03;;
74753;SDS011;63271;53.340;-6.260;2023-12-04T16:12:06;6.40;;;2.03;;
74753;SDS011;63271;53.340;-6.260;2023-12-04T16:14:35;7.22;;;1.90;;
74753;SDS011;63271;53.340;-6.260;2023-12-04T16:17:01;8.80;;;2.90;;
74753;SDS011;63271;53.340;-6.260;2023-12-04T16:19:26;13.95;;;3.17;;
74753;SDS011;63271;53.340;-6.260;2023-12-04T16:21:56;9.52;;;2.80;;
74753;SDS011;63271;53.340;-6.260;2023-12-04T16:24:21;12.43;;;2.58;;
74753;SDS011;63271;53.340;-6.260;2023-12-04T16:26:48;9.20;;;1.88;;
74753;SDS011;63271;53.340;-6.260;2023-12-04T16:29:16;10.80;;;2.45;;
74753;SDS011;63271;53.340;-6.260;2023-12-04T16:31:41;12.70;;;2.10;;
74753;SDS011;63271;53.340;-6.260;2023-12-04T16:34:09;6.10;;;2.38;;
74753;SDS011;63271;53.340;-6.260;2023-12-04T16:36:37;4.68;;;2.10;;
74753;SDS011;63271;53.340;-6.260;2023-12-04T16:39:02;7.85;;;2.30;;
74753;SDS011;63271;53.340;-6.260;2023-12-04T16:41:28;7.80;;;1.75;;
74753;SDS011;63271;53.340;-6.260;2023-12-04T16:43:54;6.80;;;2.00;;
74753;SDS011;63271;53.340;-6.260;2023-12-04T16:46:19;10.70;;;1.98;;
74753;SDS011;63271;53.340;-6.260;2023-12-04T16:48:45;8.35;;;2.13;;
74753;SDS011;63271;53.340;-6.260;2023-12-04T16:51:12;7.72;;;2.17;;
74753;SDS011;63271;53.340;-6.260;2023-12-04T16:53:38;5.13;;;1.63;;
74753;SDS011;63271;53.340;-6.260;2023-12-04T16:56:10;4.70;;;1.75;;
74753;SDS011;63271;53.340;-6.260;2023-12-04T16:58:36;7.15;;;2.08;;
74753;SDS011;63271;53.340;-6.260;2023-12-04T17:01:02;7.65;;;1.88;;
74753;SDS011;63271;53.340;-6.260;2023-12-04T17:03:30;4.18;;;1.77;;
74753;SDS011;63271;53.340;-6.260;2023-12-04T17:05:55;6.97;;;1.90;;
74753;SDS011;63271;53.340;-6.260;2023-12-04T17:08:21;5.65;;;1.88;;
74753;SDS011;63271;53.340;-6.260;2023-12-04T17:10:47;5.18;;;1.83;;
74753;SDS011;63271;53.340;-6.260;2023-12-04T17:13:15;2.97;;;1.40;;
74753;SDS011;63271;53.340;-6.260;2023-12-04T17:15:41;2.90;;;1.58;;
74753;SDS011;63271;53.340;-6.260;2023-12-04T17:18:07;3.25;;;1.63;;
74753;SDS011;63271;53.340;-6.260;2023-12-04T17:20:33;5.05;;;1.50;;
74753;SDS011;63271;53.340;-6.260;2023-12-04T17:23:05;4.22;;;1.65;;
74753;SDS011;63271;53.340;-6.260;2023-12-04T17:25:33;6.03;;;1.98;;
74753;SDS011;63271;53.340;-6.260;2023-12-04T17:28:00;3.97;;;1.52;;
74753;SDS011;63271;53.340;-6.260;2023-12-04T17:30:26;3.65;;;1.70;;
74753;SDS011;63271;53.340;-6.260;2023-12-04T17:32:57;2.95;;;1.58;;
74753;SDS011;63271;53.340;-6.260;2023-12-04T17:35:26;3.47;;;1.73;;
74753;SDS011;63271;53.340;-6.260;2023-12-04T17:37:51;6.28;;;1.63;;
74753;SDS011;63271;53.340;-6.260;2023-12-04T17:40:17;4.88;;;1.70;;
74753;SDS011;63271;53.340;-6.260;2023-12-04T17:42:45;3.92;;;1.40;;
74753;SDS011;63271;53.340;-6.260;2023-12-04T17:45:11;5.38;;;1.67;;
74753;SDS011;63271;53.340;-6.260;2023-12-04T17:47:37;3.70;;;1.48;;
74753;SDS011;63271;53.340;-6.260;2023-12-04T17:50:07;5.30;;;1.90;;
74753;SDS011;63271;53.340;-6.260;2023-12-04T17:52:33;2.58;;;1.40;;
74753;SDS011;63271;53.340;-6.260;2023-12-04T17:54:59;3.30;;;1.52;;
74753;SDS011;63271;53.340;-6.260;2023-12-04T17:57:26;6.22;;;2.13;;
74753;SDS011;63271;53.340;-6.260;2023-12-04T17:59:54;3.88;;;1.75;;
74753;SDS011;63271;53.340;-6.260;2023-12-04T18:02:23;4.25;;;1.45;;
74753;SDS011;63271;53.340;-6.260;2023-12-04T18:04:48;2.78;;;1.40;;
74753;SDS011;63271;53.340;-6.260;2023-12-04T18:07:14;7.35;;;1.85;;
74753;SDS011;63271;53.340;-6.260;2023-12-04T18:09:39;4.05;;;1.35;;
74753;SDS011;63271;53.340;-6.260;2023-12-04T18:12:05;3.35;;;1.45;;
74753;SDS011;63271;53.340;-6.260;2023-12-04T18:14:31;2.80;;;1.50;;
74753;SDS011;63271;53.340;-6.260;2023-12-04T18:17:01;3.38;;;1.55;;
74753;SDS011;63271;53.340;-6.260;2023-12-04T18:19:28;2.85;;;1.60;;
74753;SDS011;63271;53.340;-6.260;2023-12-04T18:21:53;3.75;;;1.50;;
74753;SDS011;63271;53.340;-6.260;2023-12-04T18:24:19;3.15;;;1.50;;
74753;SDS011;63271;53.340;-6.260;2023-12-04T18:26:49;2.88;;;1.40;;
74753;SDS011;63271;53.340;-6.260;2023-12-04T18:29:14;3.25;;;1.52;;
74753;SDS011;63271;53.340;-6.260;2023-12-04T18:31:43;4.32;;;1.80;;
74753;SDS011;63271;53.340;-6.260;2023-12-04T18:34:11;2.97;;;1.58;;
74753;SDS011;63271;53.340;-6.260;2023-12-04T18:36:43;2.70;;;1.35;;
74753;SDS011;63271;53.340;-6.260;2023-12-04T18:41:44;3.70;;;1.48;;
74753;SDS011;63271;53.340;-6.260;2023-12-04T18:44:10;4.00;;;1.35;;
74753;SDS011;63271;53.340;-6.260;2023-12-04T18:46:38;2.45;;;1.30;;
74753;SDS011;63271;53.340;-6.260;2023-12-04T18:49:08;4.28;;;1.77;;
74753;SDS011;63271;53.340;-6.260;2023-12-04T18:51:35;5.28;;;1.88;;
74753;SDS011;63271;53.340;-6.260;2023-12-04T18:54:03;4.22;;;1.75;;
74753;SDS011;63271;53.340;-6.260;2023-12-04T18:56:31;5.38;;;1.60;;
74753;SDS011;63271;53.340;-6.260;2023-12-04T18:58:57;3.95;;;1.60;;
74753;SDS011;63271;53.340;-6.260;2023-12-04T19:01:26;3.28;;;1.40;;
74753;SDS011;63271;53.340;-6.260;2023-12-04T19:03:51;5.05;;;1.60;;
74753;SDS011;63271;53.340;-6.260;2023-12-04T19:06:19;6.82;;;1.58;;
74753;SDS011;63271;53.340;-6.260;2023-12-04T19:08:47;4.72;;;1.55;;
74753;SDS011;63271;53.340;-6.260;2023-12-04T19:11:12;3.95;;;1.55;;
74753;SDS011;63271;53.340;-6.260;2023-12-04T19:13:40;2.63;;;1.50;;
74753;SDS011;63271;53.340;-6.260;2023-12-04T19:16:06;2.95;;;1.40;;
74753;SDS011;63271;53.340;-6.260;2023-12-04T19:18:31;3.03;;;1.73;;
74753;SDS011;63271;53.340;-6.260;2023-12-04T19:20:57;3.22;;;1.33;;
74753;SDS011;63271;53.340;-6.260;2023-12-04T19:23:22;2.58;;;1.52;;
74753;SDS011;63271;53.340;-6.260;2023-12-04T19:25:50;2.88;;;1.35;;
74753;SDS011;63271;53.340;-6.260;2023-12-04T19:28:18;3.85;;;1.65;;
74753;SDS011;63271;53.340;-6.260;2023-12-04T19:30:46;2.85;;;1.50;;
74753;SDS011;63271;53.340;-6.260;2023-12-04T19:33:14;5.75;;;1.85;;
74753;SDS011;63271;53.340;-6.260;2023-12-04T19:35:40;4.95;;;1.75;;
74753;SDS011;63271;53.340;-6.260;2023-12-04T19:38:07;3.35;;;1.75;;
74753;SDS011;63271;53.340;-6.260;2023-12-04T19:40:35;5.68;;;1.75;;
74753;SDS011;63271;53.340;-6.260;2023-12-04T19:43:01;5.40;;;2.13;;
74753;SDS011;63271;53.340;-6.260;2023-12-04T19:45:26;3.60;;;1.80;;
74753;SDS011;63271;53.340;-6.260;2023-12-04T19:47:55;5.18;;;1.52;;
74753;SDS011;63271;53.340;-6.260;2023-12-04T19:50:20;3.58;;;1.73;;
74753;SDS011;63271;53.340;-6.260;2023-12-04T19:52:49;2.85;;;1.50;;
74753;SDS011;63271;53.340;-6.260;2023-12-04T19:55:14;4.18;;;1.90;;
74753;SDS011;63271;53.340;-6.260;2023-12-04T19:57:39;4.30;;;1.67;;
74753;SDS011;63271;53.340;-6.260;2023-12-04T20:00:05;3.75;;;1.80;;
